Terminal Aerodrome Forecast
Issued by NWS

Home | Current Version | Previous Version | Text Only | Print | Product List | Glossary On
Versions: 1 2 3 4 5 6 7 8 9 10 11 12 13 14 15
000
FTUS45 KTFX 250500
TAFHVR
TAF
KHVR 250538Z 2506/2606 31007KT P6SM SCT040 BKN060
      TEMPO 2506/2508 SCT015 BKN025
     FM250800 32008KT 6SM BR SCT010 OVC020
     FM252200 VRB06KT P6SM SCT025 BKN060=

USA.gov is the U.S. government's official web portal to all federal, state and local government web resources and services.